Time;durP1;ratioP1;P1;durP2;ratioP2;P2;SDS_P1;SDS_P2;PMS_P1;PMS_P2;Temp;Humidity;BMP_temperature;BMP_pressure;BME280_temperature;BME280_humidity;BME280_pressure;Samples;Min_cycle;Max_cycle;Signal;HPM_P1;HPM_P2
2023/03/05 00:01:23;;;;;;;8.98;3.15;;;8.10;67.30;;;;;;5094369;28;20093;-63
2023/03/05 00:03:51;;;;;;;8.68;2.30;;;8.10;67.40;;;;;;5093118;28;20036;-62
2023/03/05 00:06:20;;;;;;;9.57;2.63;;;8.10;67.40;;;;;;5100426;28;20020;-63
2023/03/05 00:08:47;;;;;;;7.88;2.60;;;8.10;67.50;;;;;;5093954;28;20036;-63
2023/03/05 00:11:13;;;;;;;8.27;2.63;;;8.10;67.50;;;;;;5097919;28;20015;-63
2023/03/05 00:13:39;;;;;;;10.88;2.90;;;8.10;67.50;;;;;;5095067;28;20082;-62
2023/03/05 00:16:10;;;;;;;11.82;2.55;;;8.10;67.50;;;;;;5095211;28;20023;-63
2023/03/05 00:18:37;;;;;;;9.85;2.50;;;8.10;67.60;;;;;;5097036;28;20035;-63
2023/03/05 00:21:04;;;;;;;7.18;2.17;;;8.10;67.60;;;;;;5092899;28;20817;-63
2023/03/05 00:23:30;;;;;;;8.45;2.53;;;8.10;67.60;;;;;;5093719;28;20325;-63
2023/03/05 00:25:56;;;;;;;11.65;2.60;;;8.10;67.70;;;;;;5092282;28;20035;-62
2023/03/05 00:28:21;;;;;;;9.25;2.67;;;8.10;67.80;;;;;;5098869;28;20119;-63
2023/03/05 00:30:47;;;;;;;10.18;2.58;;;8.10;67.80;;;;;;5089066;28;20034;-62
2023/03/05 00:33:13;;;;;;;10.68;2.63;;;8.10;67.80;;;;;;5091692;28;20059;-62
2023/03/05 00:35:44;;;;;;;8.30;2.63;;;8.10;67.90;;;;;;5093732;28;20052;-63
2023/03/05 00:38:11;;;;;;;9.43;2.53;;;8.10;68.00;;;;;;5089802;28;20111;-62
2023/03/05 00:40:39;;;;;;;7.95;2.13;;;8.10;67.90;;;;;;5093349;28;20047;-62
2023/03/05 00:43:06;;;;;;;9.07;2.72;;;8.00;67.90;;;;;;5091167;28;20395;-62
2023/03/05 00:45:32;;;;;;;7.10;2.53;;;8.00;67.90;;;;;;5094599;28;20023;-63
2023/03/05 00:47:58;;;;;;;8.05;2.70;;;8.10;68.00;;;;;;5097155;28;20039;-62
2023/03/05 00:50:24;;;;;;;11.07;2.55;;;8.10;68.00;;;;;;5096502;28;20031;-62
2023/03/05 00:52:51;;;;;;;9.40;2.45;;;8.10;68.10;;;;;;5102308;28;20562;-63
2023/03/05 00:55:17;;;;;;;8.30;2.40;;;8.10;68.00;;;;;;5097601;28;20115;-63
2023/03/05 00:57:43;;;;;;;10.82;2.90;;;8.10;68.00;;;;;;5101354;28;20027;-62
2023/03/05 01:00:10;;;;;;;9.10;2.67;;;8.10;68.00;;;;;;5096365;28;20020;-63
2023/03/05 01:02:35;;;;;;;6.40;2.53;;;8.10;68.20;;;;;;5098702;28;20067;-63
2023/03/05 01:05:01;;;;;;;6.25;2.35;;;8.00;68.20;;;;;;5099049;28;20058;-63
2023/03/05 01:07:27;;;;;;;11.70;2.65;;;8.00;68.30;;;;;;5095817;28;20024;-62
2023/03/05 01:09:53;;;;;;;9.85;2.30;;;8.10;68.50;;;;;;5095480;28;20026;-62
2023/03/05 01:12:18;;;;;;;10.25;2.30;;;8.00;68.60;;;;;;5097466;28;20440;-63
2023/03/05 01:14:44;;;;;;;7.65;1.98;;;8.00;68.70;;;;;;5105500;28;20024;-63
2023/03/05 01:17:10;;;;;;;6.38;2.15;;;8.00;68.90;;;;;;5102839;28;20020;-62
2023/03/05 01:19:36;;;;;;;6.93;2.00;;;8.00;69.10;;;;;;5096171;28;20016;-62
2023/03/05 01:22:02;;;;;;;8.52;2.20;;;8.00;69.20;;;;;;5078912;28;20154;-62
2023/03/05 01:24:30;;;;;;;7.47;2.38;;;7.90;69.30;;;;;;5095495;28;20039;-63
2023/03/05 01:26:56;;;;;;;7.45;2.55;;;7.90;69.40;;;;;;5096999;28;20085;-63
2023/03/05 01:29:22;;;;;;;12.70;3.03;;;7.90;69.40;;;;;;5105602;28;20095;-63
2023/03/05 01:31:48;;;;;;;10.10;2.10;;;7.90;69.60;;;;;;5081548;28;20024;-63
2023/03/05 01:34:14;;;;;;;6.82;2.17;;;7.90;69.70;;;;;;5094010;28;20112;-63
2023/03/05 01:36:41;;;;;;;9.05;2.55;;;7.80;69.70;;;;;;5096807;28;20051;-63
2023/03/05 01:39:07;;;;;;;6.60;2.00;;;7.90;69.80;;;;;;5100043;28;20024;-63
2023/03/05 01:41:33;;;;;;;8.02;2.40;;;7.80;69.80;;;;;;5095494;28;20089;-63
2023/03/05 01:43:59;;;;;;;10.23;2.78;;;7.80;69.80;;;;;;5099743;27;20028;-63
2023/03/05 01:46:36;;;;;;;9.68;2.22;;;7.80;69.90;;;;;;5096229;28;20032;-63
2023/03/05 01:49:20;;;;;;;9.98;2.47;;;7.80;69.90;;;;;;5099051;28;20105;-63
2023/03/05 01:52:16;;;;;;;5.28;1.92;;;7.80;69.90;;;;;;5079353;28;20024;-63
2023/03/05 01:54:45;;;;;;;8.77;2.20;;;7.80;69.90;;;;;;5093914;28;20119;-63
2023/03/05 01:57:35;;;;;;;10.52;2.30;;;7.80;69.90;;;;;;5096325;28;20369;-63
2023/03/05 02:00:08;;;;;;;6.82;2.08;;;7.80;70.00;;;;;;5096774;28;20016;-63
2023/03/05 02:02:40;;;;;;;7.88;2.05;;;7.80;70.00;;;;;;5097291;28;20346;-63
2023/03/05 02:05:10;;;;;;;6.85;2.75;;;7.80;69.90;;;;;;5093510;28;20122;-63
2023/03/05 02:07:38;;;;;;;8.32;2.40;;;7.80;70.00;;;;;;5096204;28;20032;-63
2023/03/05 02:10:33;;;;;;;7.20;2.72;;;7.80;70.00;;;;;;5095894;28;20026;-63
2023/03/05 02:13:01;;;;;;;8.75;1.95;;;7.80;70.00;;;;;;5086109;28;20036;-63
2023/03/05 02:15:28;;;;;;;9.43;2.53;;;7.80;70.00;;;;;;5094345;28;20021;-63
2023/03/05 02:17:54;;;;;;;7.53;2.22;;;7.80;70.10;;;;;;5103740;28;20411;-63
2023/03/05 02:20:26;;;;;;;9.50;2.42;;;7.80;70.10;;;;;;5097794;28;20043;-63
2023/03/05 02:22:52;;;;;;;5.47;1.63;;;7.80;70.10;;;;;;5094984;28;20038;-63
2023/03/05 02:25:24;;;;;;;7.88;1.90;;;7.80;70.10;;;;;;5095755;28;20028;-63
2023/03/05 02:28:07;;;;;;;9.65;2.38;;;7.80;70.00;;;;;;5096711;28;20077;-63
2023/03/05 02:30:34;;;;;;;10.00;2.65;;;7.80;70.00;;;;;;5091827;28;20337;-63
2023/03/05 02:33:00;;;;;;;11.00;2.35;;;7.80;70.00;;;;;;5096358;28;20028;-63
2023/03/05 02:35:26;;;;;;;6.22;2.55;;;7.80;70.00;;;;;;5095151;28;20027;-63
2023/03/05 02:37:52;;;;;;;8.27;2.35;;;7.80;70.00;;;;;;5110087;28;20033;-63
2023/03/05 02:40:18;;;;;;;7.43;2.30;;;7.80;70.00;;;;;;5084527;28;20024;-63
2023/03/05 02:42:44;;;;;;;8.50;2.22;;;7.80;70.00;;;;;;5097329;28;20035;-63
2023/03/05 02:45:12;;;;;;;6.95;1.98;;;7.80;70.70;;;;;;5094490;28;20028;-63
2023/03/05 02:47:38;;;;;;;7.18;2.17;;;7.80;70.00;;;;;;5092503;28;20122;-63
2023/03/05 02:50:07;;;;;;;8.00;2.22;;;7.70;70.00;;;;;;5093856;28;20387;-63
2023/03/05 02:52:33;;;;;;;9.65;2.30;;;7.80;70.00;;;;;;5103176;28;20048;-63
2023/03/05 02:54:59;;;;;;;9.70;2.50;;;7.80;70.00;;;;;;5093385;28;20031;-65
2023/03/05 02:57:28;;;;;;;5.63;1.77;;;7.80;70.00;;;;;;5094470;28;20031;-63
2023/03/05 02:59:54;;;;;;;8.35;2.20;;;7.80;70.00;;;;;;5084179;28;20084;-63
2023/03/05 03:02:20;;;;;;;5.93;1.85;;;7.80;70.00;;;;;;5102745;28;20110;-63
2023/03/05 03:04:46;;;;;;;10.00;2.00;;;7.80;70.00;;;;;;5104084;28;20132;-63
2023/03/05 03:07:13;;;;;;;7.82;2.40;;;7.70;70.00;;;;;;5093638;28;20028;-63
2023/03/05 03:09:39;;;;;;;9.60;2.65;;;7.70;69.90;;;;;;5093520;28;20032;-63
2023/03/05 03:12:06;;;;;;;5.60;2.00;;;7.80;70.00;;;;;;5098137;28;20119;-63
2023/03/05 03:14:38;;;;;;;7.82;1.85;;;7.70;70.00;;;;;;5109188;28;20445;-63
2023/03/05 03:17:22;;;;;;;10.07;2.45;;;7.70;70.00;;;;;;5097663;28;20023;-63
2023/03/05 03:19:47;;;;;;;9.73;2.42;;;7.70;70.00;;;;;;5094220;28;20038;-63
2023/03/05 03:22:14;;;;;;;7.15;2.58;;;7.70;70.00;;;;;;5093334;28;20452;-63
2023/03/05 03:24:42;;;;;;;10.00;2.65;;;7.70;70.00;;;;;;5094923;28;20012;-63
2023/03/05 03:27:08;;;;;;;9.52;2.97;;;7.70;70.00;;;;;;5094028;28;20024;-63
2023/03/05 03:29:34;;;;;;;8.18;2.40;;;7.70;70.00;;;;;;5105997;28;20027;-63
2023/03/05 03:32:00;;;;;;;8.82;2.53;;;7.70;70.00;;;;;;5094650;28;20483;-63
2023/03/05 03:34:26;;;;;;;9.10;2.45;;;7.70;70.10;;;;;;5112399;28;20389;-63
2023/03/05 03:36:52;;;;;;;10.30;2.97;;;7.70;70.20;;;;;;5102393;28;20039;-63
2023/03/05 03:39:18;;;;;;;7.65;2.50;;;7.70;70.20;;;;;;5101213;28;20039;-63
2023/03/05 03:41:49;;;;;;;11.57;2.97;;;7.70;70.30;;;;;;5099957;28;20549;-63
2023/03/05 03:44:17;;;;;;;7.68;2.33;;;7.70;70.30;;;;;;5115171;28;20114;-63
2023/03/05 03:46:45;;;;;;;9.02;3.30;;;7.60;70.30;;;;;;5100407;28;20027;-63
2023/03/05 03:49:21;;;;;;;8.18;2.83;;;7.60;70.30;;;;;;5104847;28;20028;-63
2023/03/05 03:51:50;;;;;;;7.22;2.97;;;7.60;70.40;;;;;;5096379;28;20036;-63
2023/03/05 03:54:17;;;;;;;8.45;2.50;;;7.70;70.50;;;;;;5108715;28;20149;-63
2023/03/05 03:56:44;;;;;;;8.60;3.10;;;7.60;70.40;;;;;;5100319;28;20028;-63
2023/03/05 03:59:10;;;;;;;11.00;2.90;;;7.60;70.40;;;;;;5107211;28;20024;-63
2023/03/05 04:01:36;;;;;;;7.78;2.38;;;7.60;70.40;;;;;;5093785;28;20024;-63
2023/03/05 04:04:03;;;;;;;6.45;2.22;;;7.60;70.50;;;;;;5094274;28;20020;-63
2023/03/05 04:06:28;;;;;;;9.75;2.75;;;7.60;70.50;;;;;;5093229;28;20036;-63
2023/03/05 04:08:54;;;;;;;7.15;2.70;;;7.60;70.50;;;;;;5108372;28;20089;-63
2023/03/05 04:11:20;;;;;;;8.95;2.85;;;7.60;70.50;;;;;;5094776;28;20364;-63
2023/03/05 04:13:47;;;;;;;6.53;2.70;;;7.60;70.50;;;;;;5108149;28;20024;-63
2023/03/05 04:16:13;;;;;;;6.88;2.67;;;7.60;70.50;;;;;;5109037;28;20027;-63
2023/03/05 04:18:39;;;;;;;8.90;3.20;;;7.60;70.60;;;;;;5096244;28;20081;-63
2023/03/05 04:21:05;;;;;;;7.75;3.22;;;7.60;70.60;;;;;;5090856;28;20470;-63
2023/03/05 04:23:31;;;;;;;7.90;3.22;;;7.50;70.60;;;;;;5091387;28;20115;-63
2023/03/05 04:25:57;;;;;;;8.27;3.25;;;7.50;70.70;;;;;;5090294;28;20069;-63
2023/03/05 04:28:23;;;;;;;11.38;2.92;;;7.60;70.70;;;;;;5092435;28;20071;-63
2023/03/05 04:30:49;;;;;;;10.02;2.58;;;7.50;70.70;;;;;;5091589;28;20039;-63
2023/03/05 04:33:14;;;;;;;8.68;2.92;;;7.60;70.70;;;;;;5097363;28;20028;-63
2023/03/05 04:35:41;;;;;;;7.38;2.72;;;7.60;70.60;;;;;;5092593;28;20040;-63
2023/03/05 04:38:07;;;;;;;9.38;2.50;;;7.60;70.50;;;;;;5092171;28;20036;-63
2023/03/05 04:40:34;;;;;;;8.38;2.83;;;7.60;70.50;;;;;;5090915;28;20039;-63
2023/03/05 04:42:59;;;;;;;7.10;2.83;;;7.60;70.40;;;;;;5091421;28;20059;-63
2023/03/05 04:45:25;;;;;;;7.75;2.75;;;7.60;70.40;;;;;;5092534;28;20116;-63
2023/03/05 04:47:51;;;;;;;8.30;2.10;;;7.60;70.40;;;;;;5092253;28;20028;-63
2023/03/05 04:50:17;;;;;;;6.53;2.40;;;7.60;70.40;;;;;;5091173;28;20076;-63
2023/03/05 04:52:44;;;;;;;7.30;2.65;;;7.60;70.40;;;;;;5091042;28;20495;-63
2023/03/05 04:55:11;;;;;;;8.27;2.35;;;7.60;70.30;;;;;;5092461;28;20024;-63
2023/03/05 04:57:37;;;;;;;5.30;2.28;;;7.60;70.30;;;;;;5091705;28;20038;-63
2023/03/05 05:00:10;;;;;;;9.85;2.50;;;7.60;70.30;;;;;;5091604;28;20016;-63
2023/03/05 05:02:36;;;;;;;6.80;2.53;;;7.50;70.30;;;;;;5088391;28;20073;-63
2023/03/05 05:05:02;;;;;;;7.07;2.42;;;7.60;70.30;;;;;;5092439;28;20039;-63
2023/03/05 05:07:28;;;;;;;7.60;2.38;;;7.50;70.30;;;;;;5091850;28;20035;-63
2023/03/05 05:09:54;;;;;;;5.28;2.40;;;7.60;70.40;;;;;;5090515;28;20131;-63
2023/03/05 05:12:20;;;;;;;7.32;2.45;;;7.50;70.30;;;;;;5092522;28;20528;-63
2023/03/05 05:14:46;;;;;;;6.00;2.05;;;7.50;70.30;;;;;;5075039;28;20076;-63
2023/03/05 05:17:11;;;;;;;8.82;2.00;;;7.50;70.30;;;;;;5092614;28;20020;-63
2023/03/05 05:19:37;;;;;;;6.93;2.30;;;7.50;70.30;;;;;;5107383;28;20107;-63
2023/03/05 05:22:03;;;;;;;8.55;2.13;;;7.50;70.40;;;;;;5094467;28;20433;-63
2023/03/05 05:24:29;;;;;;;8.05;2.90;;;7.50;70.30;;;;;;5075605;28;21217;-63
2023/03/05 05:26:54;;;;;;;5.15;1.70;;;7.50;70.40;;;;;;5093459;28;20445;-63
2023/03/05 05:29:20;;;;;;;7.03;2.00;;;7.50;70.50;;;;;;5091899;28;20036;-63
2023/03/05 05:31:47;;;;;;;7.90;2.22;;;7.50;71.20;;;;;;5100386;28;20032;-63
2023/03/05 05:34:13;;;;;;;7.47;2.10;;;7.50;70.60;;;;;;5094873;28;20025;-63
2023/03/05 05:36:38;;;;;;;7.20;1.90;;;7.50;70.60;;;;;;5095636;28;20103;-63
2023/03/05 05:39:04;;;;;;;7.00;2.00;;;7.50;70.70;;;;;;5097123;28;20043;-63
2023/03/05 05:41:30;;;;;;;6.57;1.80;;;7.40;70.70;;;;;;5101126;28;20114;-63
2023/03/05 05:43:56;;;;;;;5.72;2.05;;;7.40;70.80;;;;;;5089780;28;20488;-63
2023/03/05 05:46:21;;;;;;;4.40;1.70;;;7.40;70.80;;;;;;5101628;28;20028;-63
2023/03/05 05:48:47;;;;;;;6.85;2.08;;;7.40;70.80;;;;;;5098196;28;20062;-63
2023/03/05 05:51:19;;;;;;;4.25;1.60;;;7.40;70.90;;;;;;5105313;28;20020;-63
2023/03/05 05:53:46;;;;;;;6.47;1.83;;;7.40;70.90;;;;;;5097927;28;20491;-63
2023/03/05 05:56:13;;;;;;;4.35;1.67;;;7.40;70.90;;;;;;5095745;28;20097;-63
2023/03/05 05:58:40;;;;;;;6.85;1.80;;;7.40;70.90;;;;;;5096480;28;20036;-63
2023/03/05 06:01:21;;;;;;;4.68;1.70;;;7.40;71.00;;;;;;5102973;28;20020;-63
2023/03/05 06:03:47;;;;;;;4.95;1.85;;;7.40;71.10;;;;;;5088976;28;20096;-63
2023/03/05 06:06:15;;;;;;;6.03;1.98;;;7.40;71.00;;;;;;5095268;28;20422;-63
2023/03/05 06:08:41;;;;;;;6.65;1.98;;;7.40;71.10;;;;;;5095255;28;20441;-63
2023/03/05 06:11:07;;;;;;;7.07;1.63;;;7.40;71.20;;;;;;5095437;28;20031;-63
2023/03/05 06:13:34;;;;;;;7.90;1.90;;;7.40;71.10;;;;;;5107538;28;20024;-63
2023/03/05 06:16:02;;;;;;;7.72;1.70;;;7.40;71.10;;;;;;5081382;28;20070;-62
2023/03/05 06:18:28;;;;;;;7.15;1.88;;;7.40;71.20;;;;;;5108394;28;20036;-63
2023/03/05 06:21:00;;;;;;;4.88;1.65;;;7.40;71.90;;;;;;5113526;28;20042;-63
2023/03/05 06:23:26;;;;;;;;;;;7.40;71.20;;;;;;5097801;28;20020;-63
2023/03/05 06:25:53;;;;;;;6.38;2.28;;;7.40;71.20;;;;;;5096167;28;19908;-63
2023/03/05 06:28:20;;;;;;;4.90;1.60;;;7.30;71.20;;;;;;5101437;28;20046;-63
2023/03/05 06:30:46;;;;;;;5.05;1.50;;;7.30;71.20;;;;;;5095732;28;20511;-63
2023/03/05 06:33:12;;;;;;;4.72;1.73;;;7.40;71.20;;;;;;5094788;28;20028;-63
2023/03/05 06:35:41;;;;;;;4.32;1.52;;;7.30;71.10;;;;;;5094626;28;20023;-63
2023/03/05 06:38:07;;;;;;;5.70;1.88;;;7.40;71.20;;;;;;5099814;28;20046;-63
2023/03/05 06:40:34;;;;;;;8.02;2.53;;;7.40;71.20;;;;;;5107428;28;20368;-63
2023/03/05 06:43:00;;;;;;;4.95;1.85;;;7.40;71.20;;;;;;5094790;28;20397;-63
2023/03/05 06:45:26;;;;;;;10.27;1.80;;;7.40;71.20;;;;;;5094860;28;20117;-63
2023/03/05 06:47:51;;;;;;;6.47;1.58;;;7.40;71.20;;;;;;5094687;28;20483;-63
2023/03/05 06:50:17;;;;;;;6.97;1.98;;;7.40;71.20;;;;;;5091321;28;20028;-63
2023/03/05 06:52:43;;;;;;;7.78;1.75;;;7.40;71.20;;;;;;5097124;28;20035;-61
2023/03/05 06:55:09;;;;;;;4.65;1.58;;;7.40;71.20;;;;;;5096768;28;20032;-60
2023/03/05 06:57:38;;;;;;;7.13;2.03;;;7.40;71.20;;;;;;5078843;28;20126;-61
2023/03/05 07:00:10;;;;;;;6.72;1.63;;;7.40;71.30;;;;;;5107574;28;20054;-61
2023/03/05 07:02:37;;;;;;;6.90;1.45;;;7.40;71.30;;;;;;5104388;28;20024;-62
2023/03/05 07:05:04;;;;;;;6.28;1.73;;;7.40;71.30;;;;;;5087930;28;20476;-62
2023/03/05 07:07:29;;;;;;;5.45;1.55;;;7.50;71.40;;;;;;5094520;28;20040;-62
2023/03/05 07:09:55;;;;;;;5.25;1.50;;;7.40;71.30;;;;;;5111546;28;20035;-62
2023/03/05 07:12:21;;;;;;;7.38;1.92;;;7.40;71.40;;;;;;5095230;28;20028;-62
2023/03/05 07:14:47;;;;;;;5.90;1.80;;;7.40;71.40;;;;;;5094413;28;20028;-62
2023/03/05 07:17:14;;;;;;;7.75;2.00;;;7.50;71.50;;;;;;5093527;28;20023;-62
2023/03/05 07:19:40;;;;;;;5.95;2.03;;;7.50;71.50;;;;;;5094426;28;20174;-62
2023/03/05 07:22:07;;;;;;;6.20;1.92;;;7.50;71.50;;;;;;5093674;28;20021;-62
2023/03/05 07:24:33;;;;;;;7.03;1.90;;;7.50;71.50;;;;;;5096673;28;20459;-62
2023/03/05 07:26:58;;;;;;;4.80;1.73;;;7.50;71.50;;;;;;5096072;28;20024;-62
2023/03/05 07:29:26;;;;;;;4.90;2.03;;;7.60;71.50;;;;;;5102943;28;20069;-62
2023/03/05 07:31:52;;;;;;;6.00;1.88;;;7.60;71.50;;;;;;5100016;28;20069;-62
2023/03/05 07:34:19;;;;;;;7.90;2.42;;;7.60;71.50;;;;;;5095175;28;20030;-62
2023/03/05 07:36:45;;;;;;;4.40;1.75;;;7.60;71.50;;;;;;5106002;28;20027;-62
2023/03/05 07:39:12;;;;;;;5.60;2.10;;;7.60;71.50;;;;;;5091466;28;20024;-62
2023/03/05 07:41:38;;;;;;;7.00;2.00;;;7.60;71.50;;;;;;5102529;28;20372;-62
2023/03/05 07:44:04;;;;;;;6.28;2.00;;;7.70;71.40;;;;;;5097058;28;20400;-64
2023/03/05 07:46:32;;;;;;;5.22;1.98;;;7.80;71.30;;;;;;5104470;28;20034;-63
2023/03/05 07:48:59;;;;;;;7.95;2.22;;;7.80;71.20;;;;;;5079229;28;20043;-63
2023/03/05 07:51:26;;;;;;;8.30;1.98;;;7.90;71.10;;;;;;5090651;28;20020;-66
2023/03/05 07:53:54;;;;;;;7.10;2.17;;;7.90;71.00;;;;;;5092669;28;20104;-63
2023/03/05 07:56:25;;;;;;;6.57;2.08;;;8.00;71.00;;;;;;5093180;28;20119;-62
2023/03/05 07:58:52;;;;;;;5.90;1.90;;;8.00;70.80;;;;;;5076714;28;20059;-63
2023/03/05 08:01:18;;;;;;;6.10;2.10;;;8.00;70.70;;;;;;5094768;28;20050;-62
2023/03/05 08:03:43;;;;;;;6.00;1.83;;;8.10;70.70;;;;;;5095941;28;20085;-62
2023/03/05 08:06:11;;;;;;;9.25;2.20;;;8.10;70.60;;;;;;5086768;28;20028;-63
2023/03/05 08:08:37;;;;;;;8.60;2.20;;;8.10;70.50;;;;;;5074107;28;20045;-62
2023/03/05 08:11:11;;;;;;;5.78;1.80;;;8.10;70.40;;;;;;5073491;28;20025;-62
2023/03/05 08:13:37;;;;;;;5.50;2.08;;;8.20;70.50;;;;;;5084206;28;20047;-62
2023/03/05 08:16:13;;;;;;;5.97;2.00;;;8.20;70.40;;;;;;5090719;28;20016;-62
2023/03/05 08:18:39;;;;;;;4.78;1.60;;;8.10;70.30;;;;;;5081036;28;20103;-63
2023/03/05 08:21:05;;;;;;;7.45;2.15;;;8.10;70.30;;;;;;5094458;28;20032;-63
2023/03/05 08:23:33;;;;;;;5.80;2.13;;;8.10;70.40;;;;;;5093225;28;20032;-63
2023/03/05 08:25:59;;;;;;;6.60;2.40;;;8.10;70.30;;;;;;5093874;28;20020;-62
2023/03/05 08:28:25;;;;;;;5.88;2.20;;;8.20;70.30;;;;;;5073951;28;20032;-63
2023/03/05 08:30:51;;;;;;;6.28;2.20;;;8.20;70.20;;;;;;5084965;28;20060;-62
2023/03/05 08:33:17;;;;;;;5.95;2.00;;;8.20;70.20;;;;;;5093160;28;20028;-62
2023/03/05 08:35:43;;;;;;;7.15;2.30;;;8.20;70.10;;;;;;5094078;28;20039;-62
2023/03/05 08:38:09;;;;;;;9.07;2.38;;;8.30;70.00;;;;;;5093188;28;20032;-63
2023/03/05 08:40:35;;;;;;;5.60;2.13;;;8.40;70.00;;;;;;5091523;28;20127;-62
2023/03/05 08:43:00;;;;;;;6.28;1.80;;;8.40;69.80;;;;;;5091719;28;20039;-62
2023/03/05 08:45:27;;;;;;;5.35;1.83;;;8.50;69.50;;;;;;5093765;28;20034;-62
2023/03/05 08:47:56;;;;;;;5.05;2.00;;;8.60;69.30;;;;;;5089022;28;20035;-62
2023/03/05 08:50:25;;;;;;;6.65;2.10;;;8.70;69.20;;;;;;5094718;28;20115;-62
2023/03/05 08:52:51;;;;;;;5.93;1.88;;;8.80;69.00;;;;;;5092269;28;20120;-62
2023/03/05 08:55:16;;;;;;;5.57;1.95;;;8.90;68.70;;;;;;5093181;28;20020;-64
2023/03/05 08:57:42;;;;;;;6.28;1.95;;;9.00;68.50;;;;;;5093705;28;20078;-62
2023/03/05 09:00:09;;;;;;;4.80;1.65;;;9.10;68.40;;;;;;5090587;28;20360;-63
2023/03/05 09:02:35;;;;;;;3.63;1.40;;;9.10;68.00;;;;;;5090404;28;20031;-63
2023/03/05 09:05:02;;;;;;;4.40;1.83;;;9.10;67.80;;;;;;5094265;28;20032;-62
2023/03/05 09:07:28;;;;;;;3.15;1.63;;;9.20;67.80;;;;;;5094135;28;20024;-62
2023/03/05 09:09:53;;;;;;;6.82;1.70;;;9.10;67.70;;;;;;5094212;28;20021;-63
2023/03/05 09:12:19;;;;;;;6.82;1.73;;;9.10;67.60;;;;;;5093437;28;20176;-62
2023/03/05 09:14:45;;;;;;;5.80;1.83;;;9.10;67.60;;;;;;5099002;28;20145;-62
2023/03/05 09:17:11;;;;;;;5.97;1.55;;;9.10;67.60;;;;;;5095728;28;20016;-63
2023/03/05 09:19:37;;;;;;;5.78;1.90;;;9.10;67.50;;;;;;5095326;28;20508;-62
2023/03/05 09:22:03;;;;;;;4.18;1.63;;;9.10;67.40;;;;;;5096086;28;20115;-62
2023/03/05 09:24:28;;;;;;;6.22;1.33;;;9.10;67.30;;;;;;5095407;28;20055;-62
2023/03/05 09:26:58;;;;;;;4.15;1.55;;;9.10;67.10;;;;;;5099802;28;20081;-62
2023/03/05 09:29:25;;;;;;;3.72;1.30;;;9.10;67.10;;;;;;5110842;28;20031;-62
2023/03/05 09:31:51;;;;;;;3.50;1.20;;;9.00;67.00;;;;;;5093069;28;20066;-62
2023/03/05 09:34:17;;;;;;;5.55;1.70;;;9.10;66.90;;;;;;5100582;28;20059;-63
2023/03/05 09:36:43;;;;;;;4.53;1.33;;;9.10;66.80;;;;;;5099869;28;20137;-63
2023/03/05 09:39:09;;;;;;;7.53;1.40;;;9.10;66.70;;;;;;5101719;28;20405;-63
2023/03/05 09:41:46;;;;;;;3.30;1.30;;;9.10;66.60;;;;;;5097966;28;20024;-63
2023/03/05 09:44:34;;;;;;;3.83;1.17;;;9.20;66.50;;;;;;5097801;28;20036;-63
2023/03/05 09:47:15;;;;;;;4.93;1.50;;;9.30;66.40;;;;;;5094364;28;20090;-63
2023/03/05 09:49:59;;;;;;;4.07;1.58;;;9.30;66.20;;;;;;5100406;28;20588;-63
2023/03/05 09:53:15;;;;;;;5.60;1.95;;;9.40;66.10;;;;;;5095024;28;20040;-63
2023/03/05 09:55:53;;;;;;;3.50;1.10;;;9.40;65.90;;;;;;5083301;28;20036;-62
2023/03/05 09:58:36;;;;;;;3.38;1.30;;;9.40;65.80;;;;;;5095545;28;20056;-62
2023/03/05 10:01:12;;;;;;;3.20;1.52;;;9.40;65.60;;;;;;5090330;28;20429;-62
2023/03/05 10:04:01;;;;;;;4.63;1.40;;;9.50;65.40;;;;;;5092535;28;20028;-62
2023/03/05 10:06:36;;;;;;;2.33;1.00;;;9.50;65.20;;;;;;5083442;28;20055;-62
2023/03/05 10:09:20;;;;;;;3.47;1.48;;;9.60;65.10;;;;;;5095617;28;20166;-62
2023/03/05 10:11:59;;;;;;;3.47;1.30;;;9.70;64.90;;;;;;5096625;28;20049;-62
2023/03/05 10:14:32;;;;;;;3.78;1.40;;;9.70;64.60;;;;;;5095023;28;20030;-62
2023/03/05 10:17:49;;;;;;;3.30;1.38;;;9.70;64.50;;;;;;5095496;28;20023;-62
2023/03/05 10:20:15;;;;;;;3.53;1.10;;;9.80;63.90;;;;;;5077167;28;20040;-62
2023/03/05 10:23:18;;;;;;;6.03;1.65;;;9.70;64.00;;;;;;5096465;28;20089;-62
2023/03/05 10:25:53;;;;;;;5.50;1.27;;;9.70;63.60;;;;;;5095323;28;20028;-62
2023/03/05 10:28:32;;;;;;;5.93;1.33;;;9.60;63.80;;;;;;5096022;28;20054;-62
2023/03/05 10:31:11;;;;;;;4.30;1.38;;;9.60;63.90;;;;;;5096171;28;20023;-62
2023/03/05 10:33:55;;;;;;;3.70;1.27;;;9.60;64.00;;;;;;5096089;28;20020;-62
2023/03/05 10:36:56;;;;;;;4.32;1.30;;;9.50;63.90;;;;;;5084385;28;20056;-62
2023/03/05 10:39:49;;;;;;;3.30;1.10;;;9.50;63.90;;;;;;5070846;28;20376;-63
2023/03/05 10:42:20;;;;;;;4.00;1.17;;;9.50;63.80;;;;;;5075597;28;20029;-62
2023/03/05 10:44:58;;;;;;;3.92;1.20;;;9.40;63.90;;;;;;5075765;28;20363;-62
2023/03/05 10:47:30;;;;;;;2.58;1.20;;;9.40;63.90;;;;;;5092785;28;20043;-62
2023/03/05 10:49:58;;;;;;;3.67;1.10;;;9.30;63.90;;;;;;5095805;28;20028;-62
2023/03/05 10:52:39;;;;;;;3.75;1.20;;;9.20;64.70;;;;;;5096294;28;20032;-62
2023/03/05 10:55:16;;;;;;;3.88;1.38;;;9.20;64.00;;;;;;5096048;28;20089;-63
2023/03/05 10:57:43;;;;;;;3.65;1.33;;;9.30;64.10;;;;;;5094747;28;20048;-62
2023/03/05 11:00:24;;;;;;;2.85;1.17;;;9.30;64.00;;;;;;5095788;28;20035;-62
2023/03/05 11:02:55;;;;;;;4.82;1.65;;;9.40;63.60;;;;;;5093192;28;20028;-62
2023/03/05 11:05:45;;;;;;;4.90;1.40;;;9.50;63.50;;;;;;5093809;28;20057;-63
2023/03/05 11:08:16;;;;;;;2.42;1.08;;;9.60;63.30;;;;;;5094520;28;20036;-62
2023/03/05 11:10:42;;;;;;;;;;;9.60;63.10;;;;;;5090146;28;20025;-62
2023/03/05 11:13:26;;;;;;;3.15;1.38;;;9.60;63.20;;;;;;5088967;28;19908;-62
2023/03/05 11:16:03;;;;;;;3.33;1.10;;;9.60;63.00;;;;;;5089922;28;20016;-62
2023/03/05 11:18:36;;;;;;;5.00;1.55;;;9.60;62.90;;;;;;5094248;28;20036;-62
2023/03/05 11:21:10;;;;;;;2.53;1.10;;;9.60;62.70;;;;;;5075420;28;20020;-63
2023/03/05 11:23:35;;;;;;;3.85;1.45;;;9.70;62.70;;;;;;5098337;28;20035;-63
2023/03/05 11:26:20;;;;;;;1.65;0.90;;;9.80;62.30;;;;;;5092010;28;20019;-63
2023/03/05 11:28:52;;;;;;;4.72;1.30;;;10.00;61.80;;;;;;5090879;28;20077;-62
2023/03/05 11:31:17;;;;;;;3.28;1.10;;;10.20;61.10;;;;;;5101457;28;20024;-66
2023/03/05 11:34:02;;;;;;;3.55;1.10;;;10.30;61.00;;;;;;5097495;28;20110;-62
2023/03/05 11:36:32;;;;;;;3.47;1.08;;;10.40;60.70;;;;;;5098234;28;20452;-63
2023/03/05 11:39:09;;;;;;;3.60;1.35;;;10.50;60.60;;;;;;5082591;28;20081;-62
2023/03/05 11:41:43;;;;;;;4.97;1.15;;;10.60;60.30;;;;;;5094925;28;20409;-62
2023/03/05 11:44:19;;;;;;;2.67;1.15;;;10.70;60.20;;;;;;5092738;28;20070;-62
2023/03/05 11:46:49;;;;;;;5.00;1.23;;;10.70;60.00;;;;;;5093569;28;20016;-62
2023/03/05 11:49:19;;;;;;;3.83;1.10;;;10.60;59.90;;;;;;5091283;28;20052;-62
2023/03/05 11:51:57;;;;;;;3.75;1.00;;;10.60;59.90;;;;;;5094081;28;20016;-62
2023/03/05 11:54:40;;;;;;;4.22;1.40;;;10.50;59.90;;;;;;5092687;28;20451;-62
2023/03/05 11:57:10;;;;;;;3.65;1.20;;;10.40;59.90;;;;;;5091028;28;20032;-62
2023/03/05 11:59:39;;;;;;;5.80;1.58;;;10.30;60.10;;;;;;5093078;28;20027;-63
2023/03/05 12:02:16;;;;;;;5.43;1.63;;;10.20;60.30;;;;;;5095033;28;20027;-62
2023/03/05 12:04:42;;;;;;;6.88;1.60;;;10.10;60.30;;;;;;5093923;28;20398;-62
2023/03/05 12:07:15;;;;;;;3.03;1.30;;;10.00;60.70;;;;;;5093316;28;20036;-62
2023/03/05 12:09:52;;;;;;;4.32;1.40;;;9.90;60.60;;;;;;5087127;28;20036;-63
2023/03/05 12:12:37;;;;;;;4.03;1.20;;;9.80;60.60;;;;;;5100612;28;20062;-63
2023/03/05 12:15:02;;;;;;;2.55;1.23;;;9.70;60.60;;;;;;5091077;28;20037;-62
2023/03/05 12:17:38;;;;;;;2.17;1.20;;;9.70;60.90;;;;;;5090029;28;20024;-62
2023/03/05 12:20:15;;;;;;;2.72;1.20;;;9.60;60.90;;;;;;5091681;28;20073;-62
2023/03/05 12:22:43;;;;;;;3.15;1.20;;;9.50;61.00;;;;;;5091670;28;20040;-63
2023/03/05 12:25:50;;;;;;;4.55;1.55;;;9.50;61.10;;;;;;5096020;28;20384;-62
2023/03/05 12:28:44;;;;;;;3.65;1.52;;;9.50;61.20;;;;;;5093259;28;20028;-62
2023/03/05 12:31:36;;;;;;;4.15;1.20;;;9.40;61.20;;;;;;5086414;28;20336;-62
2023/03/05 12:34:28;;;;;;;;;;;9.40;61.10;;;;;;5093463;28;20032;-63
2023/03/05 12:36:53;;;;;;;2.78;1.10;;;9.40;61.20;;;;;;5093070;28;19908;-63
2023/03/05 12:39:46;;;;;;;3.47;1.23;;;9.40;61.20;;;;;;5094317;28;20322;-62
2023/03/05 12:42:27;;;;;;;3.65;1.13;;;9.40;61.00;;;;;;5094230;28;20046;-62
2023/03/05 12:45:08;;;;;;;5.53;1.20;;;9.50;61.00;;;;;;5095062;28;20108;-62
2023/03/05 12:47:38;;;;;;;2.65;1.20;;;9.40;60.90;;;;;;5098356;28;20028;-62
2023/03/05 12:50:05;;;;;;;2.45;1.27;;;9.40;60.90;;;;;;5098248;28;20081;-62
2023/03/05 12:52:32;;;;;;;4.60;1.50;;;9.40;60.90;;;;;;5094345;28;20060;-62
2023/03/05 12:55:21;;;;;;;7.20;1.55;;;9.40;61.00;;;;;;5086904;28;20032;-62
2023/03/05 12:58:02;;;;;;;4.38;1.42;;;9.40;60.90;;;;;;5085098;28;20036;-62
2023/03/05 13:00:48;;;;;;;5.07;1.35;;;9.40;60.90;;;;;;5097648;28;20157;-62
2023/03/05 13:03:25;;;;;;;2.60;1.08;;;9.30;60.90;;;;;;5095464;28;20039;-62
2023/03/05 13:05:56;;;;;;;2.83;1.33;;;9.30;60.90;;;;;;5094628;28;20028;-62
2023/03/05 13:08:23;;;;;;;3.95;1.15;;;9.30;60.80;;;;;;5097822;28;20448;-63
2023/03/05 13:10:55;;;;;;;2.92;1.10;;;9.30;60.90;;;;;;5096942;28;20112;-62
2023/03/05 13:13:20;;;;;;;;;;;9.30;60.90;;;;;;5097978;28;20023;-63